Time;durP1;ratioP1;P1;durP2;ratioP2;P2;SDS_P1;SDS_P2;PMS_P1;PMS_P2;Temp;Humidity;BMP_temperature;BMP_pressure;BME280_temperature;BME280_humidity;BME280_pressure;Samples;Min_cycle;Max_cycle;Signal;HPM_P1;HPM_P2
2022/05/08 00:02:17;;;;;;;3.17;1.53;;;;;;;11.17;55.90;99658.94;5050233;28;20177;-85
2022/05/08 00:04:42;;;;;;;7.67;1.93;;;;;;;11.19;55.95;99645.78;5050232;28;20516;-85
2022/05/08 00:07:08;;;;;;;9.00;2.37;;;;;;;11.18;55.90;99650.16;5050196;28;20692;-85
2022/05/08 00:09:33;;;;;;;7.03;1.90;;;;;;;11.20;56.17;99648.31;5050182;28;20624;-85
2022/05/08 00:11:59;;;;;;;6.13;2.27;;;;;;;11.16;56.27;99643.28;5050120;28;20233;-85
2022/05/08 00:14:24;;;;;;;5.70;1.93;;;;;;;11.02;56.82;99643.94;5050089;28;20181;-85
2022/05/08 00:16:49;;;;;;;3.73;1.50;;;;;;;10.96;56.46;99639.81;5050068;28;20265;-85
2022/05/08 00:19:15;;;;;;;4.27;1.70;;;;;;;10.92;56.62;99647.91;5049955;28;20197;-85
2022/05/08 00:21:41;;;;;;;3.70;1.70;;;;;;;10.92;56.55;99653.16;5050288;28;20213;-85
2022/05/08 00:24:07;;;;;;;4.27;2.07;;;;;;;10.84;56.65;99650.03;5050269;28;20182;-85
2022/05/08 00:26:32;;;;;;;5.73;1.97;;;;;;;10.79;57.06;99652.00;5050228;28;20177;-85
2022/05/08 00:28:57;;;;;;;3.00;1.57;;;;;;;10.66;57.19;99648.22;5049909;28;20725;-85
2022/05/08 00:31:24;;;;;;;2.33;1.50;;;;;;;10.73;56.82;99647.03;5049871;28;20182;-85
2022/05/08 00:33:50;;;;;;;4.60;1.70;;;;;;;10.85;56.55;99646.47;5048945;28;20560;-85
2022/05/08 00:36:16;;;;;;;4.90;2.57;;;;;;;10.76;56.57;99639.03;5049799;28;20182;-84
2022/05/08 00:38:41;;;;;;;5.27;1.93;;;;;;;10.77;56.54;99644.19;5051575;28;20268;-84
2022/05/08 00:41:07;;;;;;;4.63;1.97;;;;;;;10.84;56.61;99645.63;5053295;28;20262;-85
2022/05/08 00:43:35;;;;;;;4.00;1.90;;;;;;;10.89;56.38;99638.41;5052354;28;20216;-85
2022/05/08 00:46:11;;;;;;;4.83;1.70;;;;;;;10.72;57.11;99643.53;5053505;28;20181;-85
2022/05/08 00:48:38;;;;;;;6.87;1.40;;;;;;;10.60;57.69;99645.88;5053526;28;20158;-85
2022/05/08 00:51:06;;;;;;;5.63;3.10;;;;;;;10.60;58.70;99656.34;5053442;28;20178;-85
2022/05/08 00:53:39;;;;;;;2.80;1.80;;;;;;;10.51;58.70;99648.91;5052964;28;20588;-85
2022/05/08 00:56:07;;;;;;;4.03;1.77;;;;;;;10.47;59.08;99649.06;5053349;28;20531;-84
2022/05/08 00:58:38;;;;;;;5.23;1.93;;;;;;;10.49;59.09;99652.44;5052975;28;20197;-85
2022/05/08 01:01:05;;;;;;;3.03;1.70;;;;;;;10.45;58.96;99640.38;5053289;28;20205;-85
2022/05/08 01:03:32;;;;;;;6.00;1.73;;;;;;;10.37;59.14;99644.28;5053494;28;20566;-85
2022/05/08 01:06:03;;;;;;;3.97;2.43;;;;;;;10.34;59.17;99647.88;5052907;28;20178;-84
2022/05/08 01:08:30;;;;;;;3.90;2.10;;;;;;;10.27;58.91;99651.66;5053203;28;20164;-85
2022/05/08 01:10:55;;;;;;;5.20;1.60;;;;;;;10.17;59.06;99655.59;5052862;28;20182;-85
2022/05/08 01:13:21;;;;;;;2.27;1.50;;;;;;;10.14;58.56;99647.03;5052813;28;20269;-84
2022/05/08 01:15:47;;;;;;;3.97;1.80;;;;;;;10.13;58.80;99650.56;5051812;28;20177;-84
2022/05/08 01:18:15;;;;;;;4.13;2.17;;;;;;;10.15;58.48;99649.56;5052958;28;20228;-84
2022/05/08 01:20:44;;;;;;;4.47;1.63;;;;;;;10.14;58.46;99642.63;5053007;28;20506;-85
2022/05/08 01:23:11;;;;;;;3.97;1.53;;;;;;;10.13;58.08;99647.94;5052649;28;20170;-85
2022/05/08 01:25:54;;;;;;;3.57;1.53;;;;;;;9.99;58.49;99643.25;5052892;28;20170;-85
2022/05/08 01:28:22;;;;;;;3.13;1.67;;;;;;;10.01;58.38;99641.41;5052877;28;20165;-84
2022/05/08 01:30:50;;;;;;;7.20;2.30;;;;;;;9.96;58.87;99638.13;5051623;28;20173;-85
2022/05/08 01:33:16;;;;;;;3.63;1.97;;;;;;;9.92;58.54;99630.47;5052511;28;20645;-85
2022/05/08 01:35:42;;;;;;;6.67;2.10;;;;;;;9.96;58.28;99632.91;5051584;27;20180;-85
2022/05/08 01:38:09;;;;;;;5.10;2.37;;;;;;;9.89;59.26;99631.47;5052355;28;20162;-85
2022/05/08 01:40:35;;;;;;;4.53;1.83;;;;;;;9.81;59.47;99638.78;5052408;28;20177;-85
2022/05/08 01:43:01;;;;;;;3.40;1.37;;;;;;;9.85;59.71;99643.00;5052620;28;20235;-85
2022/05/08 01:45:27;;;;;;;4.80;1.57;;;;;;;9.88;59.54;99643.69;5052298;28;20174;-85
2022/05/08 01:50:37;;;;;;;4.83;1.60;;;;;;;9.80;59.65;99637.09;5051495;28;20659;-85
2022/05/08 01:53:03;;;;;;;5.87;2.83;;;;;;;9.88;60.02;99645.47;5052119;28;20194;-85
2022/05/08 01:55:28;;;;;;;9.77;2.10;;;;;;;9.82;61.45;99646.59;5051311;28;20694;-85
2022/05/08 01:57:54;;;;;;;4.10;1.70;;;;;;;9.77;61.92;99645.06;5051177;28;20216;-85
2022/05/08 02:00:21;;;;;;;10.97;2.50;;;;;;;9.76;61.77;99653.84;5052012;28;20667;-85
2022/05/08 02:02:48;;;;;;;6.30;2.00;;;;;;;9.71;61.76;99642.69;5052042;28;20286;-85
2022/05/08 02:05:16;;;;;;;3.23;1.77;;;;;;;9.70;61.01;99643.59;5052323;28;20169;-85
2022/05/08 02:07:45;;;;;;;4.20;2.70;;;;;;;9.62;60.24;99643.06;5052264;28;20189;-85
2022/05/08 02:10:11;;;;;;;5.27;1.87;;;;;;;9.59;60.36;99638.81;5052231;28;20166;-85
2022/05/08 02:12:37;;;;;;;3.30;1.37;;;;;;;9.64;61.09;99642.09;5051909;28;20180;-85
2022/05/08 02:15:02;;;;;;;7.40;2.10;;;;;;;9.57;61.20;99639.78;5050963;28;20617;-84
2022/05/08 02:17:28;;;;;;;8.00;2.03;;;;;;;9.53;61.45;99641.69;5052097;28;20668;-84
2022/05/08 02:19:53;;;;;;;6.37;2.27;;;;;;;9.52;61.53;99636.50;5051738;28;20202;-84
2022/05/08 02:22:19;;;;;;;8.10;2.40;;;;;;;9.54;61.47;99634.69;5052081;28;20657;-85
2022/05/08 02:24:44;;;;;;;3.60;1.60;;;;;;;9.61;61.68;99638.75;5051718;28;20524;-85
2022/05/08 02:27:10;;;;;;;5.57;2.20;;;;;;;9.58;61.91;99636.25;5052220;28;20173;-85
2022/05/08 02:29:35;;;;;;;2.90;1.50;;;;;;;9.53;62.34;99644.31;5051949;28;20248;-85
2022/05/08 02:32:01;;;;;;;4.03;1.20;;;;;;;9.48;62.18;99645.41;5051890;28;20166;-85
2022/05/08 02:34:26;;;;;;;4.07;2.00;;;;;;;9.53;62.17;99643.44;5052132;28;20272;-85
2022/05/08 02:36:52;;;;;;;3.93;1.43;;;;;;;9.56;61.52;99643.34;5051522;28;20583;-84
2022/05/08 02:39:17;;;;;;;3.80;1.83;;;;;;;9.54;61.66;99638.13;5051392;28;20200;-85
2022/05/08 02:41:43;;;;;;;4.27;1.67;;;;;;;9.50;61.50;99638.34;5050538;28;20178;-84
2022/05/08 02:44:08;;;;;;;5.07;2.03;;;;;;;9.60;61.60;99629.19;5051415;28;20181;-85
2022/05/08 02:46:33;;;;;;;3.93;1.70;;;;;;;9.56;62.37;99638.09;5051936;28;20180;-84
2022/05/08 02:48:59;;;;;;;2.93;1.63;;;;;;;9.51;63.21;99635.63;5051379;28;20165;-84
2022/05/08 02:51:24;;;;;;;5.43;1.97;;;;;;;9.53;63.04;99632.97;5050387;28;20688;-84
2022/05/08 02:53:50;;;;;;;4.43;2.17;;;;;;;9.57;63.15;99634.53;5051130;28;20636;-85
2022/05/08 02:58:59;;;;;;;3.87;1.50;;;;;;;9.58;62.50;99641.50;5051872;28;20277;-85
2022/05/08 03:01:24;;;;;;;7.53;1.67;;;;;;;9.58;62.95;99636.25;5050213;28;20177;-85
2022/05/08 03:03:50;;;;;;;2.07;1.47;;;;;;;9.56;62.76;99643.34;5050168;28;20632;-84
2022/05/08 03:06:15;;;;;;;4.13;1.87;;;;;;;9.55;63.47;99642.47;5051677;28;20174;-84
2022/05/08 03:08:40;;;;;;;5.13;1.40;;;;;;;9.53;64.61;99643.44;5050279;28;20280;-85
2022/05/08 03:13:50;;;;;;;2.67;1.60;;;;;;;9.68;64.76;99653.28;5051100;28;20522;-85
2022/05/08 03:16:15;;;;;;;6.27;2.40;;;;;;;9.70;65.60;99646.22;5050118;28;20190;-84
2022/05/08 03:18:41;;;;;;;6.43;2.10;;;;;;;9.79;65.71;99649.34;5051208;28;20720;-85
2022/05/08 03:21:08;;;;;;;6.67;1.70;;;;;;;9.88;65.27;99650.69;5049959;28;20181;-84
2022/05/08 03:23:34;;;;;;;4.53;2.03;;;;;;;9.92;65.63;99654.06;5049868;28;20692;-84
2022/05/08 03:26:00;;;;;;;5.47;1.90;;;;;;;9.95;65.36;99651.31;5049813;28;20177;-84
2022/05/08 03:28:27;;;;;;;3.20;1.67;;;;;;;9.98;65.21;99651.19;5050981;28;20249;-84
2022/05/08 03:30:52;;;;;;;6.23;3.17;;;;;;;9.86;64.08;99657.78;5051003;28;20635;-85
2022/05/08 03:33:18;;;;;;;3.90;2.50;;;;;;;9.83;63.27;99657.88;5050642;28;20169;-84
2022/05/08 03:35:43;;;;;;;3.97;1.93;;;;;;;9.80;63.22;99665.91;5050638;28;20630;-84
2022/05/08 03:38:09;;;;;;;3.53;1.70;;;;;;;9.83;63.02;99663.13;5049604;28;20220;-84
2022/05/08 03:40:36;;;;;;;4.20;1.83;;;;;;;9.82;62.96;99662.31;5050596;28;20297;-84
2022/05/08 03:43:02;;;;;;;3.53;1.73;;;;;;;9.84;62.95;99668.31;5050840;28;20189;-84
2022/05/08 03:45:28;;;;;;;4.30;1.70;;;;;;;9.90;63.14;99667.22;5050528;28;20257;-85
2022/05/08 03:47:54;;;;;;;6.23;3.03;;;;;;;9.97;63.54;99668.66;5049510;28;20197;-85
2022/05/08 03:50:21;;;;;;;5.13;2.10;;;;;;;9.96;64.10;99664.31;5049518;28;20166;-85
2022/05/08 03:52:47;;;;;;;4.57;2.37;;;;;;;9.92;65.69;99669.75;5050472;28;20178;-84
2022/05/08 03:55:13;;;;;;;12.20;4.17;;;;;;;9.65;71.06;99675.22;5049457;28;20177;-84
2022/05/08 03:57:39;;;;;;;8.17;2.97;;;;;;;9.61;74.05;99670.16;5050301;28;20600;-85
2022/05/08 04:00:05;;;;;;;10.70;3.70;;;;;;;9.63;76.02;99670.94;5049264;28;20676;-85
2022/05/08 04:02:30;;;;;;;8.70;3.00;;;;;;;9.54;78.47;99673.94;5049333;28;20574;-84
2022/05/08 04:04:56;;;;;;;14.33;4.17;;;;;;;9.51;80.04;99676.69;5050229;28;20178;-84
2022/05/08 04:07:21;;;;;;;11.70;4.40;;;;;;;9.59;80.36;99685.91;5049295;28;20182;-84
2022/05/08 04:09:47;;;;;;;8.80;3.20;;;;;;;9.49;81.57;99683.72;5049285;28;20526;-84
2022/05/08 04:12:12;;;;;;;13.43;5.40;;;;;;;9.41;82.58;99689.25;5049631;28;20178;-84
2022/05/08 04:14:38;;;;;;;14.73;5.27;;;;;;;9.52;82.61;99688.84;5049150;28;20256;-84
2022/05/08 04:17:04;;;;;;;7.93;4.50;;;;;;;9.70;82.33;99688.09;5050072;28;20616;-84
2022/05/08 04:19:30;;;;;;;9.37;3.70;;;;;;;9.67;82.30;99685.63;5050242;28;20201;-83
2022/05/08 04:24:16;;;;;;;13.10;4.37;;;;;;;9.63;83.46;99684.91;5050386;28;20181;-84
2022/05/08 04:24:41;;;;;;;17.60;4.17;;;;;;;9.83;83.04;99689.31;5049994;28;20261;-85
2022/05/08 04:27:07;;;;;;;9.67;4.43;;;;;;;10.15;82.41;99683.63;5050073;28;20177;-84
2022/05/08 04:29:32;;;;;;;9.77;3.87;;;;;;;10.12;81.75;99690.72;5049081;28;20174;-84
2022/05/08 04:31:57;;;;;;;14.40;3.13;;;;;;;10.28;81.62;99686.56;5050042;28;20233;-84
2022/05/08 04:34:23;;;;;;;9.53;3.93;;;;;;;10.39;81.66;99685.22;5049992;28;20192;-84
2022/05/08 04:36:48;;;;;;;12.50;5.03;;;;;;;10.33;81.59;99695.94;5049842;28;20617;-85
2022/05/08 04:39:14;;;;;;;12.27;3.57;;;;;;;10.23;81.53;99692.03;5049702;28;20202;-84
2022/05/08 04:41:40;;;;;;;14.80;5.50;;;;;;;10.27;82.36;99696.19;5049779;28;20253;-85
2022/05/08 04:44:05;;;;;;;13.17;4.47;;;;;;;10.68;81.24;99691.81;5049781;28;20181;-84
2022/05/08 04:46:31;;;;;;;10.93;4.63;;;;;;;10.85;79.94;99693.66;5049746;28;20170;-85
2022/05/08 04:48:57;;;;;;;12.33;4.13;;;;;;;10.86;79.67;99690.13;5049662;28;20178;-84
2022/05/08 04:51:22;;;;;;;15.27;4.00;;;;;;;11.00;79.17;99679.88;5049706;28;20180;-85
2022/05/08 04:53:48;;;;;;;16.40;4.67;;;;;;;10.96;79.00;99683.53;5049776;28;20222;-85
2022/05/08 04:56:13;;;;;;;13.27;4.90;;;;;;;11.16;78.12;99680.88;5048734;28;20559;-85
2022/05/08 04:58:39;;;;;;;7.83;3.53;;;;;;;11.19;77.91;99683.34;5049607;28;20667;-84
2022/05/08 05:01:05;;;;;;;15.80;4.43;;;;;;;11.19;77.83;99687.75;5049631;28;20170;-84
2022/05/08 05:03:31;;;;;;;9.47;3.57;;;;;;;11.32;77.65;99684.47;5048732;28;20175;-84
2022/05/08 05:05:57;;;;;;;12.03;3.97;;;;;;;11.34;76.94;99698.41;5048572;28;20235;-84
2022/05/08 05:08:22;;;;;;;10.77;4.57;;;;;;;11.61;76.58;99697.06;5049422;28;20176;-85
2022/05/08 05:10:48;;;;;;;9.27;4.47;;;;;;;11.76;75.63;99700.78;5049424;28;20173;-84
2022/05/08 05:13:14;;;;;;;10.20;4.03;;;;;;;11.89;75.67;99696.66;5049430;28;20830;-84
2022/05/08 05:15:39;;;;;;;10.43;4.63;;;;;;;11.86;73.68;99695.94;5049320;28;20249;-84
2022/05/08 05:18:05;;;;;;;10.73;4.37;;;;;;;11.93;74.29;99698.19;5049310;28;20250;-84
2022/05/08 05:20:30;;;;;;;14.10;5.03;;;;;;;12.22;73.43;99689.69;5049506;28;20223;-85
2022/05/08 05:23:00;;;;;;;7.03;3.30;;;;;;;12.24;72.21;99693.09;5049279;28;20527;-84
2022/05/08 05:25:26;;;;;;;10.37;4.97;;;;;;;11.93;73.41;99690.28;5050600;28;20184;-84
2022/05/08 05:27:52;;;;;;;9.93;4.80;;;;;;;11.98;73.27;99700.56;5053171;28;20234;-83
2022/05/08 05:30:18;;;;;;;10.07;4.33;;;;;;;12.00;73.71;99702.19;5052609;28;20609;-85
2022/05/08 05:32:43;;;;;;;11.30;3.43;;;;;;;11.99;74.19;99702.28;5053117;28;20174;-85
2022/05/08 05:35:10;;;;;;;9.90;5.47;;;;;;;12.06;75.30;99698.41;5052569;28;20629;-85
2022/05/08 05:37:35;;;;;;;10.93;4.77;;;;;;;12.16;74.14;99703.13;5052487;28;20628;-84
2022/05/08 05:40:01;;;;;;;12.67;3.50;;;;;;;12.34;74.76;99701.38;5052378;28;20186;-84
2022/05/08 05:42:26;;;;;;;21.07;4.00;;;;;;;12.41;74.73;99704.53;5052698;28;20175;-85
2022/05/08 05:44:51;;;;;;;13.27;5.47;;;;;;;12.56;74.69;99706.38;5051464;28;20245;-85
2022/05/08 05:50:01;;;;;;;13.87;5.73;;;;;;;12.62;73.53;99699.03;5052862;28;20158;-83
2022/05/08 05:52:27;;;;;;;17.50;5.07;;;;;;;12.43;74.04;99708.78;5051435;28;20171;-84
2022/05/08 05:54:53;;;;;;;15.87;5.73;;;;;;;12.30;73.51;99712.97;5051275;28;20198;-84
2022/05/08 05:57:18;;;;;;;13.07;4.30;;;;;;;12.19;74.27;99712.66;5052222;28;20175;-84
2022/05/08 05:59:44;;;;;;;13.23;4.67;;;;;;;12.10;74.38;99715.75;5051162;28;20216;-85
2022/05/08 06:02:09;;;;;;;9.20;4.03;;;;;;;12.18;74.49;99722.34;5052196;28;20172;-85
2022/05/08 06:04:35;;;;;;;14.33;6.47;;;;;;;12.08;74.63;99715.81;5051182;28;20179;-85
2022/05/08 06:07:00;;;;;;;10.17;4.87;;;;;;;12.45;74.07;99711.38;5051231;28;20290;-85
2022/05/08 06:09:26;;;;;;;14.83;5.60;;;;;;;12.57;72.85;99711.56;5052001;28;20638;-84
2022/05/08 06:11:53;;;;;;;12.43;4.73;;;;;;;12.69;72.87;99703.03;5051912;28;20175;-84
2022/05/08 06:14:18;;;;;;;18.70;6.77;;;;;;;12.69;72.30;99705.66;5052207;28;20206;-85
2022/05/08 06:16:44;;;;;;;12.43;6.27;;;;;;;12.79;72.79;99708.66;5051920;28;20244;-85
2022/05/08 06:19:10;;;;;;;16.50;4.57;;;;;;;12.75;73.36;99699.25;5051739;28;20191;-84
2022/05/08 06:21:35;;;;;;;11.20;5.30;;;;;;;12.55;72.77;99704.69;5051832;28;20186;-85
2022/05/08 06:24:01;;;;;;;17.60;6.60;;;;;;;12.85;72.23;99703.09;5052044;28;20262;-84
2022/05/08 06:26:26;;;;;;;13.40;5.53;;;;;;;12.84;71.97;99704.03;5051755;28;20179;-85
2022/05/08 06:28:52;;;;;;;16.53;5.00;;;;;;;13.13;72.67;99705.16;5051665;28;20179;-85
2022/05/08 06:31:18;;;;;;;13.03;5.33;;;;;;;13.37;72.33;99701.16;5050713;28;20175;-85
2022/05/08 06:33:43;;;;;;;13.90;6.17;;;;;;;13.46;70.63;99692.78;5051601;28;20259;-85
2022/05/08 06:36:10;;;;;;;15.53;6.63;;;;;;;13.48;70.44;99699.66;5050290;28;20268;-85
2022/05/08 06:38:35;;;;;;;10.90;4.67;;;;;;;13.73;69.98;99690.38;5051695;28;20207;-85
2022/05/08 06:41:01;;;;;;;11.93;5.23;;;;;;;13.89;69.30;99686.75;5051504;28;20245;-86
2022/05/08 06:43:26;;;;;;;12.50;5.73;;;;;;;14.01;68.27;99690.50;5051449;28;20672;-85
2022/05/08 06:45:52;;;;;;;16.03;5.50;;;;;;;14.20;67.60;99693.78;5050753;28;20229;-85
2022/05/08 06:48:17;;;;;;;12.07;5.40;;;;;;;14.20;67.42;99690.28;5050208;28;20178;-85
2022/05/08 06:50:43;;;;;;;15.03;7.17;;;;;;;14.26;67.13;99697.81;5051316;28;20189;-85
2022/05/08 06:53:08;;;;;;;15.07;5.93;;;;;;;14.52;67.22;99691.88;5051383;28;20640;-86
2022/05/08 06:55:35;;;;;;;22.00;6.13;;;;;;;14.43;67.73;99695.06;5051264;28;20162;-86
2022/05/08 06:58:00;;;;;;;10.97;5.27;;;;;;;14.63;67.08;99685.03;5050208;28;20174;-85
2022/05/08 07:03:09;;;;;;;8.93;4.57;;;;;;;15.01;65.28;99685.34;5051189;28;20173;-86
2022/05/08 07:05:40;;;;;;;9.83;4.50;;;;;;;15.18;65.23;99687.75;5051081;28;20248;-86
2022/05/08 07:08:06;;;;;;;10.87;5.43;;;;;;;15.46;64.26;99691.34;5051088;28;20597;-87
2022/05/08 07:10:32;;;;;;;7.10;4.13;;;;;;;15.58;63.32;99685.28;5051046;28;20699;-85
2022/05/08 07:12:57;;;;;;;12.23;4.13;;;;;;;15.69;63.21;99682.78;5051246;28;20218;-87
2022/05/08 07:15:23;;;;;;;9.53;3.77;;;;;;;16.10;64.41;99678.28;5051219;28;20177;-87
2022/05/08 07:17:48;;;;;;;10.07;4.10;;;;;;;16.51;61.18;99672.81;5049968;28;20187;-87
2022/05/08 07:20:14;;;;;;;8.63;4.17;;;;;;;16.84;60.71;99675.84;5051097;28;20188;-86
2022/05/08 07:22:39;;;;;;;8.13;3.57;;;;;;;17.12;58.15;99669.44;5051093;28;20643;-86
2022/05/08 07:25:06;;;;;;;7.87;3.60;;;;;;;17.47;56.10;99662.50;5051107;28;20673;-86
2022/05/08 07:27:36;;;;;;;10.63;3.73;;;;;;;17.83;56.18;99666.09;5051041;28;20188;-87
2022/05/08 07:30:04;;;;;;;6.30;3.43;;;;;;;18.10;54.25;99664.03;5051068;28;20241;-87
2022/05/08 07:32:30;;;;;;;10.30;3.87;;;;;;;18.16;52.07;99666.25;5049716;28;20229;-86
2022/05/08 07:37:41;;;;;;;10.47;3.83;;;;;;;18.42;51.85;99662.47;5051456;28;20173;-88
2022/05/08 07:40:07;;;;;;;9.00;3.90;;;;;;;18.77;51.30;99663.25;5050548;28;20186;-87
2022/05/08 07:42:32;;;;;;;9.50;3.70;;;;;;;18.96;47.40;99665.34;5050499;28;20178;-87
2022/05/08 07:44:58;;;;;;;7.63;2.90;;;;;;;19.16;48.67;99658.44;5050980;28;20330;-88
2022/05/08 07:47:24;;;;;;;6.73;3.90;;;;;;;19.28;50.53;99660.97;5049647;28;20175;-87
2022/05/08 07:49:50;;;;;;;6.63;3.27;;;;;;;19.58;48.62;99663.84;5050433;28;20701;-87
2022/05/08 07:52:15;;;;;;;9.30;2.80;;;;;;;19.59;44.01;99667.34;5050404;28;20170;-86
2022/05/08 07:54:40;;;;;;;7.17;2.67;;;;;;;19.91;45.24;99667.38;5050209;28;20661;-88
2022/05/08 07:57:06;;;;;;;8.40;2.90;;;;;;;20.18;46.27;99662.41;5049350;28;20173;-87
2022/05/08 07:59:31;;;;;;;5.97;2.60;;;;;;;20.43;47.68;99651.44;5049311;28;20200;-87
2022/05/08 08:01:57;;;;;;;6.57;2.73;;;;;;;20.61;43.81;99655.19;5050571;28;20177;-88
2022/05/08 08:04:23;;;;;;;8.30;3.30;;;;;;;20.57;41.86;99655.59;5050275;28;20178;-86
2022/05/08 08:06:48;;;;;;;5.33;3.03;;;;;;;20.70;43.72;99661.56;5050241;28;20659;-88
2022/05/08 08:09:14;;;;;;;7.00;2.73;;;;;;;20.58;43.29;99659.94;5050254;28;20165;-87
2022/05/08 08:11:41;;;;;;;5.30;2.57;;;;;;;20.33;43.17;99663.00;5050172;28;20712;-86
2022/05/08 08:14:06;;;;;;;7.23;3.50;;;;;;;20.72;44.70;99660.47;5050398;28;20256;-86
2022/05/08 08:16:32;;;;;;;9.40;3.30;;;;;;;20.57;42.68;99659.09;5050395;28;20256;-87
2022/05/08 08:18:57;;;;;;;9.67;3.20;;;;;;;20.72;45.01;99652.47;5049993;28;20190;-86
2022/05/08 08:21:24;;;;;;;9.67;3.37;;;;;;;20.89;42.18;99647.47;5050085;28;20177;-85
2022/05/08 08:23:49;;;;;;;6.77;2.77;;;;;;;20.93;42.66;99640.91;5050006;28;20209;-86
2022/05/08 08:26:15;;;;;;;6.10;2.57;;;;;;;21.33;44.07;99645.28;5049034;28;20205;-87
2022/05/08 08:28:40;;;;;;;4.53;2.43;;;;;;;21.27;42.22;99645.88;5049031;28;20304;-86
2022/05/08 08:31:10;;;;;;;5.00;2.27;;;;;;;21.23;39.26;99646.25;5049893;28;20202;-86
2022/05/08 08:33:40;;;;;;;6.90;3.10;;;;;;;21.29;40.45;99648.38;5049900;28;20178;-86
2022/05/08 08:36:07;;;;;;;5.30;2.67;;;;;;;21.49;40.62;99643.97;5049841;28;20651;-86
2022/05/08 08:38:33;;;;;;;6.93;2.60;;;;;;;21.80;39.89;99642.88;5048837;28;20655;-87
2022/05/08 08:41:04;;;;;;;5.37;2.97;;;;;;;22.04;39.32;99644.16;5049815;28;20166;-87
2022/05/08 08:47:42;;;;;;;4.67;1.70;;;;;;;22.15;35.02;99635.16;5049823;28;20222;-87
2022/05/08 08:49:02;;;;;;;9.20;2.87;;;;;;;21.69;36.62;99637.66;5049761;28;20208;-86
2022/05/08 08:51:27;;;;;;;7.33;3.20;;;;;;;21.90;37.78;99633.09;5049669;28;20174;-86
2022/05/08 08:53:55;;;;;;;6.67;2.93;;;;;;;22.16;38.53;99628.84;5049504;28;20257;-86
2022/05/08 08:56:22;;;;;;;9.40;2.20;;;;;;;22.32;37.17;99633.63;5048674;28;20170;-86
2022/05/08 08:58:47;;;;;;;4.97;2.10;;;;;;;22.60;36.76;99628.22;5049998;28;20190;-87
2022/05/08 09:01:14;;;;;;;11.67;2.60;;;;;;;22.64;34.69;99626.16;5053301;28;20181;-87
2022/05/08 09:03:39;;;;;;;4.90;2.10;;;;;;;22.72;33.91;99628.09;5052990;28;20261;-87
2022/05/08 09:06:08;;;;;;;5.93;2.57;;;;;;;22.51;35.18;99628.25;5052064;28;20295;-87
2022/05/08 09:08:37;;;;;;;4.67;2.33;;;;;;;22.57;37.10;99625.81;5052953;28;20174;-85
2022/05/08 09:11:03;;;;;;;5.37;2.47;;;;;;;22.70;36.49;99620.19;5052939;28;20245;-87
2022/05/08 09:13:30;;;;;;;8.90;3.20;;;;;;;22.84;37.82;99618.88;5051961;28;20182;-87
2022/05/08 09:16:07;;;;;;;6.60;2.87;;;;;;;23.10;36.77;99622.56;5053100;28;20181;-87
2022/05/08 09:18:48;;;;;;;7.57;2.97;;;;;;;23.06;35.34;99615.84;5052649;28;20284;-87
2022/05/08 09:24:10;;;;;;;7.67;2.80;;;;;;;23.37;34.35;99619.09;5053308;28;20212;-87
2022/05/08 09:26:36;;;;;;;6.23;2.50;;;;;;;23.64;35.35;99616.38;5052661;28;20174;-87
2022/05/08 09:29:03;;;;;;;7.80;2.80;;;;;;;23.75;36.17;99608.13;5052621;28;20655;-87
2022/05/08 09:31:38;;;;;;;4.93;2.63;;;;;;;24.08;36.03;99614.63;5052645;28;20174;-87
2022/05/08 09:34:04;;;;;;;8.10;2.97;;;;;;;24.16;36.14;99604.00;5052899;28;20154;-87
2022/05/08 09:36:29;;;;;;;9.67;3.50;;;;;;;24.26;37.15;99602.09;5052540;28;20548;-88
2022/05/08 09:38:56;;;;;;;8.13;3.23;;;;;;;24.34;37.25;99597.59;5051462;28;20592;-87
2022/05/08 09:41:36;;;;;;;5.10;2.00;;;;;;;24.35;33.11;99598.44;5052748;28;20174;-88
2022/05/08 09:44:16;;;;;;;3.83;1.90;;;;;;;24.71;34.05;99594.66;5051508;28;20274;-89
2022/05/08 09:46:43;;;;;;;8.20;2.00;;;;;;;24.57;31.58;99595.25;5052527;28;20173;-87
2022/05/08 09:49:13;;;;;;;4.50;1.60;;;;;;;24.73;33.77;99583.78;5052594;28;20708;-87
2022/05/08 09:51:41;;;;;;;4.10;1.73;;;;;;;24.85;33.19;99587.91;5052571;28;20181;-88
2022/05/08 09:54:08;;;;;;;4.00;1.98;;;;;;;24.99;33.07;99582.78;5052324;28;20216;-88
2022/05/08 09:56:34;;;;;;;3.70;1.67;;;;;;;25.24;33.80;99578.34;5052201;28;20189;-87
2022/05/08 09:59:00;;;;;;;4.93;1.73;;;;;;;25.20;32.75;99578.81;5051136;28;20205;-87
2022/05/08 10:01:26;;;;;;;3.00;1.60;;;;;;;25.30;31.91;99579.53;5051476;28;20556;-86
2022/05/08 10:03:52;;;;;;;4.87;1.40;;;;;;;25.48;33.65;99577.59;5052377;28;20519;-88
2022/05/08 10:06:18;;;;;;;6.10;2.35;;;;;;;25.58;31.87;99567.53;5052164;28;20196;-85
2022/05/08 10:08:45;;;;;;;2.45;1.27;;;;;;;25.53;33.07;99567.19;5050092;28;20625;-86
2022/05/08 10:14:03;;;;;;;3.17;1.48;;;;;;;25.70;31.48;99562.69;5051115;28;20178;-85
2022/05/08 10:16:56;;;;;;;2.90;1.70;;;;;;;25.81;32.44;99554.31;5051068;28;20170;-85
2022/05/08 10:19:27;;;;;;;3.53;1.77;;;;;;;25.62;30.48;99556.31;5050287;28;20216;-87
2022/05/08 10:21:56;;;;;;;3.50;1.17;;;;;;;25.51;29.82;99551.28;5050400;28;20177;-85
2022/05/08 10:24:28;;;;;;;4.50;1.65;;;;;;;25.74;30.75;99550.59;5049165;28;20197;-87
2022/05/08 10:27:28;;;;;;;5.63;1.70;;;;;;;25.82;28.54;99547.94;5048967;28;20178;-85
2022/05/08 10:29:54;;;;;;;6.47;1.33;;;;;;;25.49;31.42;99555.13;5049605;28;20438;-86
2022/05/08 10:32:31;;;;;;;3.63;1.50;;;;;;;25.69;29.32;99545.75;5048626;28;20181;-85
2022/05/08 10:35:03;;;;;;;2.97;1.20;;;;;;;25.19;30.05;99542.25;5048803;28;20177;-87
2022/05/08 10:37:30;;;;;;;5.28;1.80;;;;;;;25.41;32.50;99530.91;5049495;28;20170;-85
2022/05/08 10:39:56;;;;;;;5.25;1.73;;;;;;;25.44;31.01;99536.81;5050779;28;20205;-86
2022/05/08 10:42:27;;;;;;;4.63;1.52;;;;;;;25.24;31.96;99531.88;5052337;28;20711;-86
2022/05/08 10:44:54;;;;;;;4.57;1.75;;;;;;;25.57;29.51;99531.81;5051472;28;20625;-86
2022/05/08 10:47:32;;;;;;;2.47;0.82;;;;;;;25.75;29.03;99528.97;5051982;28;20178;-85
2022/05/08 10:50:02;;;;;;;1.58;0.57;;;;;;;25.68;26.50;99521.75;5051902;28;20523;-87
2022/05/08 10:52:27;;;;;;;2.90;1.50;;;;;;;25.71;27.90;99521.44;5050679;28;20185;-85
2022/05/08 10:55:01;;;;;;;1.55;0.75;;;;;;;25.96;26.58;99520.41;5052030;28;20185;-85
2022/05/08 10:57:34;;;;;;;2.03;0.75;;;;;;;25.90;27.63;99513.84;5050571;28;20268;-85
2022/05/08 11:00:00;;;;;;;3.55;0.88;;;;;;;25.94;26.38;99517.88;5050208;28;20189;-87
2022/05/08 11:02:41;;;;;;;3.50;1.08;;;;;;;25.77;27.10;99510.00;5051150;28;20641;-87
2022/05/08 11:05:07;;;;;;;2.60;0.70;;;;;;;26.15;25.65;99503.97;5051132;28;20234;-87
2022/05/08 11:07:33;;;;;;;3.08;0.93;;;;;;;26.32;26.08;99500.22;5051360;28;20173;-87
2022/05/08 11:09:59;;;;;;;2.03;1.02;;;;;;;26.87;27.69;99492.16;5051074;28;20242;-86
2022/05/08 11:12:25;;;;;;;4.13;0.85;;;;;;;27.28;28.08;99498.16;5051035;28;20188;-87
2022/05/08 11:14:51;;;;;;;4.63;1.38;;;;;;;27.52;26.45;99484.53;5051354;28;20525;-86
2022/05/08 11:17:17;;;;;;;1.77;0.80;;;;;;;27.72;24.60;99485.75;5049990;28;20238;-86
2022/05/08 11:19:52;;;;;;;1.77;0.63;;;;;;;27.57;24.48;99475.94;5051146;28;20228;-86
2022/05/08 11:22:18;;;;;;;3.10;0.90;;;;;;;27.81;26.61;99473.00;5049719;28;20699;-86
2022/05/08 11:24:47;;;;;;;5.28;0.88;;;;;;;27.50;26.18;99485.72;5051188;28;20177;-87
2022/05/08 11:27:13;;;;;;;2.63;0.73;;;;;;;26.79;25.22;99487.66;5050800;28;20197;-88
2022/05/08 11:29:46;;;;;;;3.38;0.77;;;;;;;26.49;26.01;99484.88;5049790;28;20200;-86
2022/05/08 11:38:00;;;;;;;1.42;0.65;;;;;;;27.32;25.60;99481.47;5051167;28;20173;-86
2022/05/08 11:40:27;;;;;;;2.17;0.75;;;;;;;27.40;25.45;99475.22;5050483;28;20272;-87
2022/05/08 11:42:52;;;;;;;4.03;0.82;;;;;;;27.24;25.92;99470.75;5049561;28;20177;-87
2022/05/08 11:45:18;;;;;;;3.13;1.23;;;;;;;27.26;25.73;99468.72;5051072;28;20162;-85
2022/05/08 11:47:53;;;;;;;2.53;0.93;;;;;;;27.48;25.82;99460.84;5050756;28;20229;-86
2022/05/08 11:50:19;;;;;;;2.25;0.93;;;;;;;27.25;27.01;99466.22;5050441;28;20169;-86
2022/05/08 11:52:45;;;;;;;2.15;0.85;;;;;;;27.27;26.45;99473.09;5050299;28;20240;-86
2022/05/08 11:55:11;;;;;;;1.67;0.63;;;;;;;27.66;26.21;99459.50;5049744;28;20616;-87
2022/05/08 11:57:44;;;;;;;2.72;1.33;;;;;;;27.49;25.98;99463.34;5050629;28;20170;-86
2022/05/08 12:00:12;;;;;;;4.20;0.98;;;;;;;27.48;25.98;99461.69;5049355;28;20232;-87
2022/05/08 12:02:39;;;;;;;1.65;0.90;;;;;;;27.84;26.36;99460.03;5050126;28;20174;-87
2022/05/08 12:05:05;;;;;;;3.60;1.60;;;;;;;27.78;27.02;99447.28;5050477;28;20195;-85